Terminal Aerodrome Forecast
Issued by NWS

Home | Current Version | Previous Version | Text Only | Print | Product List | Glossary On
Versions: 1 2 3 4 5 6 7 8 9 10 11 12 13 14 15 16 17 18 19 20 21 22 23 24 25 26 27 28 29 30 31 32 33 34
000
FTUS43 KDMX 291138
TAFOTM
TAF
KOTM 291138Z 2912/3012 13006KT 5SM BR FEW010 BKN060
     FM291900 19009KT P6SM BKN035
     FM292300 23010KT P6SM VCSH BKN040
     FM300100 26007KT 4SM TSRA OVC020CB
     FM300500 23006KT P6SM VCSH BKN040
     FM300900 28005KT 2SM BR SCT007 BKN060=

USA.gov is the U.S. government's official web portal to all federal, state and local government web resources and services.